Time;durP1;ratioP1;P1;durP2;ratioP2;P2;SDS_P1;SDS_P2;PMS_P1;PMS_P2;Temp;Humidity;BMP_temperature;BMP_pressure;BME280_temperature;BME280_humidity;BME280_pressure;Samples;Min_cycle;Max_cycle;Signal;HPM_P1;HPM_P2
2023/02/06 00:01:22;;;;;;;3.73;3.03;;;;;;;6.08;100.00;102490.53;5015591;28;20452;-55
2023/02/06 00:03:49;;;;;;;3.73;3.17;;;;;;;6.03;100.00;102499.16;5015775;28;20448;-54
2023/02/06 00:06:15;;;;;;;5.53;5.23;;;;;;;5.89;100.00;102499.69;5016148;28;20560;-54
2023/02/06 00:08:42;;;;;;;2.20;2.10;;;;;;;5.81;100.00;102503.84;5024018;28;20495;-55
2023/02/06 00:11:12;;;;;;;4.73;3.60;;;;;;;5.70;100.00;102494.75;5026095;28;20998;-53
2023/02/06 00:13:39;;;;;;;2.73;2.53;;;;;;;5.74;100.00;102503.63;5023357;28;20444;-54
2023/02/06 00:16:17;;;;;;;4.47;3.33;;;;;;;5.70;100.00;102507.94;5025929;28;20476;-53
2023/02/06 00:18:44;;;;;;;14.93;3.73;;;;;;;5.77;100.00;102504.63;5011280;28;20479;-53
2023/02/06 00:21:11;;;;;;;2.90;2.40;;;;;;;5.89;100.00;102511.97;5022440;28;20459;-53
2023/02/06 00:23:38;;;;;;;3.07;2.63;;;;;;;5.69;100.00;102519.34;5025663;28;20810;-53
2023/02/06 00:26:07;;;;;;;2.10;2.00;;;;;;;5.54;100.00;102511.91;5027700;28;20465;-54
2023/02/06 00:28:34;;;;;;;4.87;3.30;;;;;;;5.51;100.00;102518.84;5028046;28;20495;-54
2023/02/06 00:31:00;;;;;;;6.07;4.53;;;;;;;5.41;100.00;102515.06;5028855;28;20471;-53
2023/02/06 00:33:27;;;;;;;6.03;3.37;;;;;;;5.50;100.00;102523.25;5029767;28;20448;-53
2023/02/06 00:35:53;;;;;;;6.07;4.30;;;;;;;5.48;100.00;102522.31;5026981;28;20464;-54
2023/02/06 00:38:19;;;;;;;2.43;2.23;;;;;;;5.49;100.00;102516.19;5015256;28;20805;-54
2023/02/06 00:40:46;;;;;;;12.67;3.10;;;;;;;5.45;100.00;102524.84;5015304;28;20818;-54
2023/02/06 00:43:13;;;;;;;1.27;1.17;;;;;;;5.53;100.00;102530.34;5015253;28;20492;-54
2023/02/06 00:45:39;;;;;;;4.63;4.43;;;;;;;5.65;100.00;102531.56;5014034;28;20527;-54
2023/02/06 00:48:07;;;;;;;4.33;4.00;;;;;;;5.68;100.00;102527.22;5008266;28;21001;-53
2023/02/06 00:50:34;;;;;;;2.57;2.37;;;;;;;5.76;100.00;102523.06;5014978;28;20452;-54
2023/02/06 00:53:01;;;;;;;2.10;1.50;;;;;;;5.50;100.00;102532.91;5015064;28;20965;-54
2023/02/06 00:55:27;;;;;;;2.97;2.10;;;;;;;5.41;100.00;102528.25;5014826;28;20480;-54
2023/02/06 00:57:53;;;;;;;3.37;2.23;;;;;;;5.44;100.00;102525.69;5014686;28;20942;-54
2023/02/06 01:00:20;;;;;;;4.43;3.03;;;;;;;5.43;100.00;102521.25;5013834;28;20475;-53
2023/02/06 01:02:46;;;;;;;9.33;2.97;;;;;;;5.48;100.00;102527.59;5014885;28;20547;-54
2023/02/06 01:05:13;;;;;;;1.83;1.73;;;;;;;5.31;100.00;102523.56;5014559;28;20475;-54
2023/02/06 01:07:39;;;;;;;2.53;2.33;;;;;;;5.29;100.00;102528.78;5014670;28;20462;-54
2023/02/06 01:10:08;;;;;;;2.00;1.90;;;;;;;5.33;100.00;102524.47;5014634;28;20448;-53
2023/02/06 01:12:35;;;;;;;2.10;1.87;;;;;;;5.39;100.00;102526.41;5008676;28;20464;-53
2023/02/06 01:15:09;;;;;;;3.97;3.03;;;;;;;5.42;100.00;102523.88;5014493;28;20480;-54
2023/02/06 01:17:37;;;;;;;9.47;4.03;;;;;;;5.32;100.00;102527.97;5006982;28;20507;-53
2023/02/06 01:20:06;;;;;;;3.40;2.73;;;;;;;5.29;100.00;102535.78;5010460;28;20457;-53
2023/02/06 01:22:34;;;;;;;5.57;2.80;;;;;;;5.23;100.00;102533.88;5014221;28;20499;-54
2023/02/06 01:25:01;;;;;;;10.60;3.63;;;;;;;5.24;100.00;102535.69;5014310;28;20483;-53
2023/02/06 01:27:27;;;;;;;7.97;2.70;;;;;;;5.27;100.00;102530.47;5014387;28;20456;-53
2023/02/06 01:29:54;;;;;;;3.60;2.80;;;;;;;5.31;100.00;102532.34;5014118;28;20499;-54
2023/02/06 01:32:20;;;;;;;6.63;4.67;;;;;;;5.56;100.00;102527.78;5014350;28;20452;-54
2023/02/06 01:34:47;;;;;;;3.33;3.13;;;;;;;5.49;100.00;102518.81;5013864;28;20480;-54
2023/02/06 01:37:13;;;;;;;7.07;4.13;;;;;;;5.71;100.00;102530.84;5014310;28;20463;-53
2023/02/06 01:39:39;;;;;;;4.83;3.87;;;;;;;5.60;100.00;102527.00;5013992;28;20450;-54
2023/02/06 01:42:06;;;;;;;4.07;3.77;;;;;;;5.57;100.00;102527.81;5013834;28;20449;-54
2023/02/06 01:44:32;;;;;;;2.40;2.20;;;;;;;5.75;100.00;102526.53;5013734;28;20453;-54
2023/02/06 01:46:59;;;;;;;3.00;2.37;;;;;;;5.77;100.00;102527.50;5011065;28;20456;-55
2023/02/06 01:49:44;;;;;;;4.53;3.67;;;;;;;5.63;100.00;102520.09;5009935;28;20499;-54
2023/02/06 01:52:16;;;;;;;2.47;2.27;;;;;;;5.78;100.00;102524.00;5013938;28;20448;-54
2023/02/06 01:54:47;;;;;;;5.30;2.93;;;;;;;5.89;100.00;102523.44;5013588;28;20472;-54
2023/02/06 01:57:15;;;;;;;6.60;3.77;;;;;;;5.78;100.00;102518.72;5013479;28;20503;-54
2023/02/06 01:59:47;;;;;;;2.60;2.40;;;;;;;5.84;100.00;102524.16;5013511;28;20447;-54
2023/02/06 02:02:13;;;;;;;2.47;2.33;;;;;;;5.70;100.00;102523.78;5013269;28;20441;-54
2023/02/06 02:04:40;;;;;;;6.30;3.97;;;;;;;5.68;100.00;102530.75;5013524;28;20469;-54
2023/02/06 02:07:14;;;;;;;2.40;2.23;;;;;;;5.41;100.00;102530.00;5013494;28;20449;-54
2023/02/06 02:09:40;;;;;;;5.80;3.47;;;;;;;5.55;100.00;102526.00;5013417;28;20495;-54
2023/02/06 02:12:07;;;;;;;4.73;4.43;;;;;;;5.68;100.00;102529.88;5006506;28;20460;-54
2023/02/06 02:14:35;;;;;;;1.80;1.70;;;;;;;5.75;100.00;102527.44;5012784;28;20457;-54
2023/02/06 02:17:29;;;;;;;4.23;2.60;;;;;;;5.71;100.00;102524.69;5010410;28;20508;-54
2023/02/06 02:20:17;;;;;;;4.80;2.67;;;;;;;5.73;100.00;102515.06;5007176;28;20453;-54
2023/02/06 02:23:02;;;;;;;2.80;2.60;;;;;;;5.74;100.00;102520.38;5013028;28;20452;-54
2023/02/06 02:25:55;;;;;;;2.97;2.70;;;;;;;5.80;100.00;102514.38;5013192;28;20473;-54
2023/02/06 02:28:46;;;;;;;2.87;2.67;;;;;;;5.85;100.00;102503.06;5012880;28;20932;-54
2023/02/06 02:31:21;;;;;;;2.43;2.23;;;;;;;5.89;100.00;102504.03;5012920;28;20449;-54
2023/02/06 02:34:13;;;;;;;3.83;3.57;;;;;;;5.81;100.00;102502.97;4989232;28;20448;-54
2023/02/06 02:36:39;;;;;;;2.63;2.53;;;;;;;5.78;100.00;102506.41;5012784;28;20468;-54
2023/02/06 02:39:24;;;;;;;6.40;3.90;;;;;;;5.78;100.00;102509.06;5012831;28;20455;-54
2023/02/06 02:41:54;;;;;;;4.80;4.40;;;;;;;5.81;100.00;102500.31;4988008;28;20510;-54
2023/02/06 02:44:33;;;;;;;4.93;3.13;;;;;;;5.81;100.00;102502.97;5012784;28;20495;-54
2023/02/06 02:47:02;;;;;;;2.53;1.80;;;;;;;5.55;100.00;102510.16;5010366;28;20444;-54
2023/02/06 02:49:33;;;;;;;4.47;3.03;;;;;;;5.71;100.00;102516.75;5009260;28;21006;-54
2023/02/06 02:52:00;;;;;;;4.00;2.67;;;;;;;5.53;100.00;102518.03;5013009;28;20445;-54
2023/02/06 02:54:27;;;;;;;3.80;3.60;;;;;;;5.70;100.00;102512.34;5012523;28;21052;-54
2023/02/06 02:57:01;;;;;;;11.80;3.00;;;;;;;5.45;100.00;102514.28;5012801;28;20460;-54
2023/02/06 02:59:35;;;;;;;5.90;3.00;;;;;;;5.51;100.00;102518.84;5012679;28;20437;-54
2023/02/06 03:02:10;;;;;;;2.90;2.67;;;;;;;5.45;100.00;102518.66;5012883;28;20510;-54
2023/02/06 03:04:43;;;;;;;2.40;1.93;;;;;;;5.13;100.00;102510.72;4990045;28;20505;-54
2023/02/06 03:07:33;;;;;;;2.90;1.73;;;;;;;4.99;100.00;102514.69;5012980;28;20449;-54
2023/02/06 03:10:18;;;;;;;3.30;2.50;;;;;;;5.01;100.00;102515.63;5012815;28;20484;-54
2023/02/06 03:12:53;;;;;;;4.77;1.63;;;;;;;4.82;100.00;102524.72;4996941;28;20459;-54
2023/02/06 03:15:34;;;;;;;7.87;3.80;;;;;;;4.87;100.00;102523.13;5012431;28;21062;-54
2023/02/06 03:18:41;;;;;;;2.57;2.47;;;;;;;4.89;100.00;102531.06;5001955;28;20896;-54
2023/02/06 03:21:12;;;;;;;3.10;2.70;;;;;;;4.82;100.00;102535.28;4995031;28;20445;-55
2023/02/06 03:23:42;;;;;;;3.87;1.70;;;;;;;4.86;100.00;102536.25;5012540;28;20456;-53
2023/02/06 03:26:13;;;;;;;3.30;3.00;;;;;;;4.86;100.00;102550.31;5013035;28;20495;-53
2023/02/06 03:28:54;;;;;;;3.77;3.00;;;;;;;4.85;100.00;102543.25;5016662;28;20488;-54
2023/02/06 03:31:27;;;;;;;3.77;2.00;;;;;;;4.77;100.00;102534.22;5016443;28;20865;-53
2023/02/06 03:34:25;;;;;;;1.83;1.73;;;;;;;4.88;100.00;102538.09;5016990;28;20809;-54
2023/02/06 03:36:52;;;;;;;6.07;3.37;;;;;;;4.91;100.00;102529.38;4992065;28;20682;-54
2023/02/06 03:39:20;;;;;;;3.53;1.73;;;;;;;4.70;100.00;102538.41;5016398;28;20440;-54
2023/02/06 03:41:48;;;;;;;2.10;2.00;;;;;;;4.66;100.00;102539.16;5016436;28;20445;-54
2023/02/06 03:44:22;;;;;;;4.10;1.30;;;;;;;4.71;100.00;102527.03;5016090;28;21059;-53
2023/02/06 03:46:50;;;;;;;2.00;1.90;;;;;;;4.75;100.00;102522.75;5015058;28;20541;-54
2023/02/06 03:49:18;;;;;;;0.73;0.73;;;;;;;4.63;100.00;102528.50;5012157;28;20488;-54
2023/02/06 03:51:58;;;;;;;2.33;2.23;;;;;;;4.69;100.00;102534.00;5016225;28;20972;-54
2023/02/06 03:54:26;;;;;;;1.37;1.27;;;;;;;4.59;100.00;102529.28;5015999;28;20444;-54
2023/02/06 03:56:55;;;;;;;1.00;1.00;;;;;;;4.50;100.00;102536.84;5016381;28;20831;-54
2023/02/06 03:59:22;;;;;;;1.67;1.50;;;;;;;4.54;100.00;102529.97;5002828;28;21112;-54
2023/02/06 04:01:53;;;;;;;1.17;1.17;;;;;;;4.57;100.00;102532.69;5016191;28;20449;-54
2023/02/06 04:04:27;;;;;;;1.67;1.10;;;;;;;4.48;100.00;102546.47;5015918;28;20436;-54
2023/02/06 04:06:59;;;;;;;2.07;1.97;;;;;;;4.37;100.00;102546.09;5016022;28;20479;-53
2023/02/06 04:09:25;;;;;;;1.93;1.20;;;;;;;4.16;100.00;102541.03;5015842;28;20510;-53
2023/02/06 04:11:51;;;;;;;4.00;2.60;;;;;;;4.00;100.00;102528.19;5009135;28;20950;-53
2023/02/06 04:14:18;;;;;;;1.13;1.07;;;;;;;4.09;100.00;102532.84;5015766;28;20452;-54
2023/02/06 04:16:44;;;;;;;0.93;0.93;;;;;;;3.95;100.00;102529.75;5014724;28;20493;-53
2023/02/06 04:19:11;;;;;;;0.77;0.77;;;;;;;3.95;100.00;102536.75;5003697;28;20444;-54
2023/02/06 04:21:37;;;;;;;0.80;0.80;;;;;;;4.11;100.00;102537.34;5015232;28;20452;-54
2023/02/06 04:24:04;;;;;;;1.43;1.33;;;;;;;4.18;100.00;102537.53;5015769;28;20444;-53
2023/02/06 04:26:30;;;;;;;0.60;0.60;;;;;;;4.23;100.00;102541.22;5015612;28;20476;-54
2023/02/06 04:28:56;;;;;;;1.80;1.70;;;;;;;4.27;100.00;102536.13;5015429;28;20488;-54
2023/02/06 04:31:23;;;;;;;2.20;1.50;;;;;;;4.02;100.00;102546.66;5015490;28;20467;-54
2023/02/06 04:33:50;;;;;;;0.70;0.70;;;;;;;4.16;100.00;102548.91;5015243;28;20840;-53
2023/02/06 04:36:16;;;;;;;0.73;0.70;;;;;;;4.21;100.00;102548.16;5015025;28;20981;-53
2023/02/06 04:38:42;;;;;;;1.73;1.63;;;;;;;4.11;100.00;102546.97;5014623;28;20624;-53
2023/02/06 04:41:09;;;;;;;2.03;1.93;;;;;;;4.01;100.00;102550.13;5015323;28;20452;-54
2023/02/06 04:43:35;;;;;;;0.80;0.70;;;;;;;4.04;100.00;102547.59;5015293;28;20444;-53
2023/02/06 04:46:02;;;;;;;0.70;0.70;;;;;;;4.19;100.00;102545.50;5015008;28;20476;-53
2023/02/06 04:48:28;;;;;;;1.70;1.53;;;;;;;4.37;100.00;102547.84;5008726;28;20455;-55
2023/02/06 04:50:55;;;;;;;0.80;0.80;;;;;;;4.27;100.00;102545.75;5014840;28;20499;-53
2023/02/06 04:53:21;;;;;;;7.00;1.97;;;;;;;4.51;100.00;102553.56;5015020;28;20849;-54
2023/02/06 04:55:48;;;;;;;1.47;1.47;;;;;;;4.53;100.00;102551.91;5014791;28;20571;-54
2023/02/06 04:58:14;;;;;;;1.47;1.37;;;;;;;4.70;100.00;102546.31;5015032;28;20536;-54
2023/02/06 05:00:40;;;;;;;3.33;3.17;;;;;;;4.79;100.00;102545.69;5014659;28;20445;-54
2023/02/06 05:03:07;;;;;;;1.40;1.37;;;;;;;4.86;100.00;102552.06;5014593;28;20459;-54
2023/02/06 05:05:33;;;;;;;1.53;1.43;;;;;;;4.82;100.00;102553.72;5014272;28;20464;-54
2023/02/06 05:08:00;;;;;;;2.93;1.33;;;;;;;4.69;100.00;102564.72;5014772;28;20456;-54
2023/02/06 05:10:27;;;;;;;2.77;1.30;;;;;;;4.67;100.00;102567.28;5014379;28;20895;-54
2023/02/06 05:12:54;;;;;;;0.63;0.63;;;;;;;4.64;100.00;102555.75;5006880;28;20460;-55
2023/02/06 05:15:21;;;;;;;1.47;1.30;;;;;;;4.68;100.00;102553.28;5014383;28;20492;-54
2023/02/06 05:17:48;;;;;;;0.30;0.30;;;;;;;4.68;100.00;102548.00;5005136;28;20454;-54
2023/02/06 05:20:14;;;;;;;23.23;3.20;;;;;;;4.69;100.00;102546.28;5011261;28;20453;-54
2023/02/06 05:22:41;;;;;;;0.40;0.40;;;;;;;4.65;100.00;102542.63;5014717;28;20449;-54
2023/02/06 05:25:07;;;;;;;1.13;1.13;;;;;;;4.64;100.00;102537.31;5014390;28;20477;-53
2023/02/06 05:27:34;;;;;;;4.60;1.60;;;;;;;4.72;100.00;102541.09;5014438;28;20840;-54
2023/02/06 05:30:00;;;;;;;1.17;0.87;;;;;;;4.51;100.00;102543.91;5014385;28;20861;-54
2023/02/06 05:32:27;;;;;;;3.30;1.03;;;;;;;4.44;100.00;102545.47;5014425;28;20457;-54
2023/02/06 05:34:53;;;;;;;1.33;0.70;;;;;;;4.37;100.00;102547.84;5014283;28;20480;-54
2023/02/06 05:37:20;;;;;;;0.90;0.90;;;;;;;4.27;100.00;102557.19;5014507;28;20449;-54
2023/02/06 05:39:46;;;;;;;1.80;1.70;;;;;;;4.47;100.00;102549.94;5014572;28;20507;-54
2023/02/06 05:42:12;;;;;;;1.43;1.17;;;;;;;4.58;100.00;102552.94;5014321;28;20453;-57
2023/02/06 05:44:39;;;;;;;1.57;1.47;;;;;;;4.47;100.00;102550.81;5016055;28;20472;-54
2023/02/06 05:47:05;;;;;;;1.43;1.37;;;;;;;4.41;100.00;102550.63;5011256;28;20497;-54
2023/02/06 05:49:32;;;;;;;1.00;1.00;;;;;;;4.57;100.00;102545.88;5012006;28;20489;-54
2023/02/06 05:51:58;;;;;;;0.60;0.60;;;;;;;4.66;100.00;102548.78;5013749;28;20453;-54
2023/02/06 05:54:24;;;;;;;1.80;1.40;;;;;;;4.65;100.00;102545.25;5013906;28;20812;-54
2023/02/06 05:56:51;;;;;;;2.13;2.03;;;;;;;4.83;100.00;102551.97;5013979;28;20448;-54
2023/02/06 05:59:17;;;;;;;0.87;0.87;;;;;;;4.72;100.00;102549.88;5013534;28;20956;-54
2023/02/06 06:01:44;;;;;;;2.30;1.53;;;;;;;4.90;100.00;102541.66;5013445;28;20456;-55
2023/02/06 06:04:10;;;;;;;1.43;1.33;;;;;;;4.92;100.00;102547.84;5013543;28;20445;-53
2023/02/06 06:06:36;;;;;;;2.13;2.03;;;;;;;4.97;100.00;102537.47;5013588;28;20535;-54
2023/02/06 06:09:03;;;;;;;0.90;0.90;;;;;;;4.89;100.00;102541.59;5012998;28;20794;-54
2023/02/06 06:11:30;;;;;;;2.10;1.27;;;;;;;4.85;100.00;102540.63;5008767;28;20457;-54
2023/02/06 06:13:57;;;;;;;1.30;1.30;;;;;;;4.80;100.00;102536.03;5010539;28;20829;-54
2023/02/06 06:16:23;;;;;;;1.23;1.23;;;;;;;4.80;100.00;102528.13;5013407;28;20818;-54
2023/02/06 06:18:50;;;;;;;1.63;0.70;;;;;;;4.81;100.00;102522.94;5000961;28;20953;-54
2023/02/06 06:21:16;;;;;;;0.97;0.87;;;;;;;4.83;100.00;102528.25;5013476;28;20455;-54
2023/02/06 06:23:43;;;;;;;1.43;1.13;;;;;;;4.81;100.00;102527.31;5013567;28;20456;-54
2023/02/06 06:26:09;;;;;;;0.97;0.93;;;;;;;4.82;100.00;102522.09;5013553;28;20469;-55
2023/02/06 06:28:37;;;;;;;1.37;1.27;;;;;;;4.83;100.00;102515.97;5013752;28;20460;-55
2023/02/06 06:31:07;;;;;;;1.20;0.70;;;;;;;4.76;100.00;102521.88;5013459;28;20500;-55
2023/02/06 06:33:33;;;;;;;0.90;0.90;;;;;;;4.76;100.00;102537.69;5013298;28;20506;-54
2023/02/06 06:36:00;;;;;;;0.40;0.30;;;;;;;4.58;100.00;102537.13;5013195;28;20559;-55
2023/02/06 06:38:26;;;;;;;1.57;1.47;;;;;;;4.54;100.00;102543.16;5013270;28;20514;-54
2023/02/06 06:40:53;;;;;;;2.53;0.60;;;;;;;4.54;100.00;102537.88;5013374;28;20520;-55
2023/02/06 06:43:19;;;;;;;1.27;1.17;;;;;;;4.62;100.00;102529.34;5013195;28;21000;-54
2023/02/06 06:45:45;;;;;;;0.53;0.53;;;;;;;4.81;100.00;102541.38;5013175;28;20473;-55
2023/02/06 06:48:12;;;;;;;1.73;1.30;;;;;;;4.71;100.00;102545.47;5006781;28;20459;-55
2023/02/06 06:50:39;;;;;;;2.13;0.80;;;;;;;4.65;100.00;102539.97;5012955;28;20880;-54
2023/02/06 06:53:05;;;;;;;2.57;0.97;;;;;;;4.70;100.00;102542.78;5012798;28;20482;-55
2023/02/06 06:55:32;;;;;;;1.40;1.30;;;;;;;4.74;100.00;102531.50;5013012;28;20475;-54
2023/02/06 06:57:58;;;;;;;4.53;2.10;;;;;;;4.75;100.00;102541.19;4986596;28;20607;-55
2023/02/06 07:00:25;;;;;;;1.20;1.10;;;;;;;4.71;100.00;102544.56;5012745;28;20957;-54
2023/02/06 07:02:51;;;;;;;2.13;0.43;;;;;;;4.66;100.00;102551.41;4985864;28;20449;-55
2023/02/06 07:05:18;;;;;;;0.83;0.83;;;;;;;4.68;100.00;102555.91;5013108;28;20845;-55
2023/02/06 07:07:44;;;;;;;0.70;0.70;;;;;;;4.67;100.00;102554.13;5013105;28;20448;-54
2023/02/06 07:10:11;;;;;;;1.37;1.30;;;;;;;4.62;100.00;102558.34;5012958;28;20494;-55
2023/02/06 07:12:38;;;;;;;2.60;1.80;;;;;;;4.59;100.00;102557.34;5006794;28;20461;-54
2023/02/06 07:15:05;;;;;;;2.37;2.27;;;;;;;4.69;100.00;102554.16;5013109;28;20476;-55
2023/02/06 07:17:32;;;;;;;1.70;1.27;;;;;;;4.60;100.00;102541.59;5006034;28;20458;-55
2023/02/06 07:19:58;;;;;;;0.50;0.50;;;;;;;4.79;100.00;102556.22;5007751;28;20820;-55
2023/02/06 07:22:24;;;;;;;2.90;1.90;;;;;;;4.72;100.00;102551.63;5013059;28;20459;-54
2023/02/06 07:24:51;;;;;;;2.03;1.93;;;;;;;4.70;100.00;102561.22;5012804;28;20477;-54
2023/02/06 07:27:19;;;;;;;1.87;1.77;;;;;;;4.64;100.00;102561.00;5012312;28;20795;-55
2023/02/06 07:29:46;;;;;;;2.13;1.40;;;;;;;4.49;100.00;102555.25;5012657;28;21035;-54
2023/02/06 07:32:14;;;;;;;1.47;1.23;;;;;;;4.45;100.00;102562.16;5012954;28;20448;-55
2023/02/06 07:34:41;;;;;;;0.63;0.63;;;;;;;4.43;100.00;102562.13;5012700;28;20468;-55
2023/02/06 07:37:07;;;;;;;0.90;0.90;;;;;;;4.44;100.00;102560.38;5012988;28;20452;-55
2023/02/06 07:39:34;;;;;;;1.70;1.03;;;;;;;4.37;100.00;102564.53;5012494;28;20448;-55
2023/02/06 07:42:00;;;;;;;1.10;1.00;;;;;;;4.63;100.00;102559.22;5013105;28;20463;-54
2023/02/06 07:44:26;;;;;;;1.73;1.60;;;;;;;4.32;100.00;102552.97;5013077;28;20490;-55
2023/02/06 07:46:53;;;;;;;3.60;2.23;;;;;;;4.24;100.00;102554.44;5011151;28;20452;-55
2023/02/06 07:49:19;;;;;;;0.87;0.87;;;;;;;4.05;100.00;102552.03;5009509;28;20449;-55
2023/02/06 07:51:46;;;;;;;1.87;1.30;;;;;;;4.00;100.00;102550.97;5012760;28;20492;-55
2023/02/06 07:54:13;;;;;;;1.57;0.60;;;;;;;3.95;100.00;102549.91;5012688;28;20458;-55
2023/02/06 07:56:39;;;;;;;0.77;0.77;;;;;;;3.92;100.00;102555.06;5012866;28;20479;-55
2023/02/06 07:59:06;;;;;;;1.20;1.10;;;;;;;3.95;100.00;102557.78;5012704;28;20453;-55
2023/02/06 08:01:32;;;;;;;0.60;0.57;;;;;;;3.98;100.00;102560.56;5012851;28;20956;-55
2023/02/06 08:03:59;;;;;;;8.03;2.60;;;;;;;4.07;100.00;102555.59;5012749;28;20527;-55
2023/02/06 08:06:26;;;;;;;1.83;1.73;;;;;;;4.09;100.00;102559.16;5011217;28;20567;-55
2023/02/06 08:08:55;;;;;;;3.50;1.90;;;;;;;4.28;100.00;102556.34;5012255;28;20449;-55
2023/02/06 08:11:24;;;;;;;2.17;2.07;;;;;;;4.30;100.00;102553.75;5008887;28;20497;-55
2023/02/06 08:13:51;;;;;;;2.30;1.33;;;;;;;4.47;100.00;102560.47;5010923;28;20452;-55
2023/02/06 08:16:19;;;;;;;1.20;1.17;;;;;;;4.33;100.00;102567.00;5048418;23;20498;-50
2023/02/06 08:18:46;;;;;;;1.07;1.07;;;;;;;4.36;100.00;102561.84;5054892;28;20455;-50
2023/02/06 08:21:15;;;;;;;4.70;1.60;;;;;;;4.46;100.00;102562.22;5055017;28;20442;-50
2023/02/06 08:23:43;;;;;;;1.23;1.13;;;;;;;4.54;100.00;102561.59;5054998;28;20866;-50
2023/02/06 08:26:13;;;;;;;2.30;2.10;;;;;;;4.71;100.00;102558.63;5055091;28;20478;-50
2023/02/06 08:28:39;;;;;;;1.00;1.00;;;;;;;4.45;100.00;102564.78;5041716;28;20442;-50
2023/02/06 08:31:16;;;;;;;1.17;1.10;;;;;;;4.65;100.00;102563.69;5042126;28;20530;-50
2023/02/06 08:33:44;;;;;;;2.20;2.10;;;;;;;4.66;100.00;102562.88;5042213;28;20491;-50
2023/02/06 08:36:13;;;;;;;1.47;1.37;;;;;;;4.72;100.00;102562.16;5041522;28;20471;-51
2023/02/06 08:38:40;;;;;;;22.83;1.50;;;;;;;4.90;100.00;102564.47;5046529;28;20542;-51
2023/02/06 08:41:23;;;;;;;0.97;0.67;;;;;;;4.88;100.00;102561.78;5048412;28;20446;-50
2023/02/06 08:43:52;;;;;;;3.00;1.50;;;;;;;4.67;100.00;102562.03;5045323;28;20455;-50
2023/02/06 08:46:20;;;;;;;2.40;0.90;;;;;;;4.62;100.00;102560.97;5040857;28;20471;-50
2023/02/06 08:48:47;;;;;;;2.90;1.43;;;;;;;4.63;100.00;102562.75;5030516;28;20482;-50
2023/02/06 08:51:14;;;;;;;0.80;0.80;;;;;;;4.45;100.00;102563.06;5047933;28;20524;-50
2023/02/06 08:53:40;;;;;;;0.90;0.50;;;;;;;4.68;100.00;102557.66;5046065;28;20457;-50
2023/02/06 08:56:10;;;;;;;0.50;0.30;;;;;;;4.80;99.96;102550.16;5040933;28;20467;-52
2023/02/06 08:58:37;;;;;;;0.30;0.30;;;;;;;4.92;97.61;102554.88;5042260;28;20452;-50
2023/02/06 09:01:08;;;;;;;0.40;0.33;;;;;;;4.91;99.54;102556.63;5047752;28;20976;-50
2023/02/06 09:03:35;;;;;;;0.53;0.50;;;;;;;5.11;99.38;102561.63;5047423;28;21013;-50
2023/02/06 09:06:03;;;;;;;0.73;0.60;;;;;;;4.98;98.27;102547.19;5027445;28;20473;-49
2023/02/06 09:08:36;;;;;;;0.40;0.40;;;;;;;5.13;98.37;102549.38;5040918;28;20443;-50
2023/02/06 09:11:14;;;;;;;0.27;0.20;;;;;;;5.33;97.09;102551.75;5045059;28;20483;-50
2023/02/06 09:13:42;;;;;;;1.97;0.33;;;;;;;5.28;96.56;102553.38;5044269;28;20448;-51
2023/02/06 09:16:10;;;;;;;3.03;0.70;;;;;;;5.35;96.10;102557.97;5044126;28;20474;-50
2023/02/06 09:18:37;;;;;;;1.27;1.23;;;;;;;5.54;96.09;102558.50;5040813;28;20450;-51
2023/02/06 09:21:05;;;;;;;0.30;0.20;;;;;;;5.16;93.66;102554.75;5043731;28;20543;-51
2023/02/06 09:23:32;;;;;;;1.37;1.17;;;;;;;5.28;93.52;102558.63;5047035;28;20452;-49
2023/02/06 09:25:59;;;;;;;0.40;0.30;;;;;;;5.58;94.30;102557.72;5044549;28;20481;-50
2023/02/06 09:28:25;;;;;;;1.07;0.50;;;;;;;5.48;93.14;102547.75;5040580;28;20561;-50
2023/02/06 09:30:51;;;;;;;0.73;0.70;;;;;;;5.24;93.68;102551.50;5042862;28;21003;-49
2023/02/06 09:33:18;;;;;;;0.70;0.50;;;;;;;5.54;95.18;102548.84;5046971;28;20459;-50
2023/02/06 09:35:44;;;;;;;1.13;0.43;;;;;;;5.69;96.04;102552.75;5045270;28;20536;-51
2023/02/06 09:38:11;;;;;;;0.40;0.30;;;;;;;5.93;95.06;102551.72;5040392;28;20454;-49
2023/02/06 09:40:37;;;;;;;0.40;0.40;;;;;;;5.70;94.69;102549.28;5042168;28;20454;-50
2023/02/06 09:43:04;;;;;;;0.40;0.30;;;;;;;5.59;93.22;102556.88;5046724;28;20812;-50
2023/02/06 09:45:32;;;;;;;0.20;0.20;;;;;;;5.90;92.78;102548.13;5045500;28;20850;-50
2023/02/06 09:48:18;;;;;;;0.40;0.40;;;;;;;6.09;94.13;102555.66;5039820;28;20455;-50
2023/02/06 09:50:50;;;;;;;0.70;0.43;;;;;;;5.93;93.23;102553.47;5039871;28;20895;-50
2023/02/06 09:53:28;;;;;;;2.57;0.80;;;;;;;5.86;91.03;102565.56;5044070;28;20547;-49
2023/02/06 09:56:14;;;;;;;6.60;1.03;;;;;;;5.78;91.91;102566.22;5046760;28;20463;-50
2023/02/06 09:59:09;;;;;;;0.47;0.47;;;;;;;6.00;91.67;102560.69;5046449;28;20446;-51
2023/02/06 10:01:56;;;;;;;0.60;0.57;;;;;;;6.02;92.47;102561.63;5044709;28;20446;-52
2023/02/06 10:04:32;;;;;;;0.30;0.30;;;;;;;5.97;90.35;102554.44;5045490;28;20478;-52
2023/02/06 10:07:20;;;;;;;0.53;0.53;;;;;;;5.86;92.91;102562.94;5046461;28;20469;-52
2023/02/06 10:09:53;;;;;;;0.63;0.63;;;;;;;5.86;91.85;102562.03;5043787;28;20457;-52
2023/02/06 10:12:37;;;;;;;0.70;0.20;;;;;;;6.06;92.64;102552.06;5027942;28;21003;-52
2023/02/06 10:15:15;;;;;;;0.30;0.30;;;;;;;5.93;90.77;102549.09;5046491;28;20446;-51
2023/02/06 10:18:00;;;;;;;1.23;1.23;;;;;;;6.17;89.77;102538.28;5024758;28;20544;-51
2023/02/06 10:20:37;;;;;;;2.07;0.63;;;;;;;6.04;90.62;102540.56;5044576;28;20808;-50
2023/02/06 10:23:17;;;;;;;2.13;0.40;;;;;;;6.10;91.72;102533.69;5046110;28;20443;-49
2023/02/06 10:25:50;;;;;;;2.00;0.30;;;;;;;6.21;89.80;102534.88;5030125;28;20494;-50
2023/02/06 10:28:28;;;;;;;1.20;1.10;;;;;;;5.75;88.53;102518.63;5039859;28;20461;-50
2023/02/06 10:31:28;;;;;;;0.30;0.30;;;;;;;6.09;91.60;102512.53;5041716;28;20574;-50
2023/02/06 10:34:15;;;;;;;6.83;0.63;;;;;;;6.15;91.61;102507.38;5031232;28;20439;-51
2023/02/06 10:37:03;;;;;;;0.97;0.50;;;;;;;6.03;88.90;102499.16;5038451;28;20525;-50
2023/02/06 10:39:57;;;;;;;0.43;0.43;;;;;;;6.12;89.64;102483.56;5039203;28;20447;-51
2023/02/06 10:42:44;;;;;;;0.43;0.40;;;;;;;6.15;87.48;102500.38;5040725;28;20439;-50
2023/02/06 10:45:28;;;;;;;0.20;0.20;;;;;;;6.07;89.15;102501.94;5029542;28;20473;-51
2023/02/06 10:47:57;;;;;;;1.30;0.70;;;;;;;5.94;87.84;102497.19;5021492;28;20458;-51
2023/02/06 10:50:35;;;;;;;9.07;0.90;;;;;;;5.82;89.84;102491.56;5041623;28;20498;-50
2023/02/06 10:53:18;;;;;;;0.30;0.20;;;;;;;6.08;87.45;102492.28;5045648;28;20454;-51
2023/02/06 10:55:58;;;;;;;0.87;0.37;;;;;;;6.08;87.88;102494.91;5045962;28;20477;-51
2023/02/06 10:58:39;;;;;;;7.20;0.50;;;;;;;5.94;85.24;102479.59;5043036;28;20443;-51
2023/02/06 11:01:09;;;;;;;0.87;0.40;;;;;;;5.94;85.90;102484.00;5021445;28;20449;-51
2023/02/06 11:04:14;;;;;;;0.80;0.80;;;;;;;5.80;85.48;102473.06;5038652;28;20471;-50
2023/02/06 11:06:41;;;;;;;0.40;0.30;;;;;;;6.42;85.75;102465.81;5040224;28;20499;-51
2023/02/06 11:09:09;;;;;;;0.73;0.70;;;;;;;6.56;85.82;102462.59;5045598;28;20829;-50
2023/02/06 11:11:39;;;;;;;1.13;0.60;;;;;;;6.67;83.70;102459.34;5038729;28;20843;-50
2023/02/06 11:14:14;;;;;;;0.30;0.20;;;;;;;6.94;84.64;102471.38;5045576;28;20526;-50
2023/02/06 11:16:41;;;;;;;0.63;0.63;;;;;;;6.73;83.88;102462.16;5045239;28;20572;-51
2023/02/06 11:19:24;;;;;;;0.60;0.57;;;;;;;6.38;84.83;102466.59;5039404;28;20446;-51
2023/02/06 11:21:52;;;;;;;0.40;0.40;;;;;;;6.37;83.13;102462.19;5038501;28;20824;-51
2023/02/06 11:24:23;;;;;;;0.20;0.10;;;;;;;6.66;84.53;102452.28;5042739;28;20475;-51
2023/02/06 11:27:02;;;;;;;0.30;0.30;;;;;;;6.20;84.87;102456.50;5045491;28;20517;-50
2023/02/06 11:29:41;;;;;;;1.23;0.50;;;;;;;6.44;82.73;102460.56;5044133;28;20866;-50
2023/02/06 11:32:36;;;;;;;0.53;0.50;;;;;;;6.43;82.53;102454.38;5045245;28;20487;-51
2023/02/06 11:35:25;;;;;;;0.63;0.63;;;;;;;6.66;82.57;102448.75;5045087;28;20447;-51
2023/02/06 11:37:53;;;;;;;0.30;0.20;;;;;;;6.64;81.19;102443.44;5045281;28;20447;-52
2023/02/06 11:40:27;;;;;;;0.63;0.60;;;;;;;6.79;80.09;102433.19;5039977;28;20446;-51
2023/02/06 11:43:17;;;;;;;0.30;0.27;;;;;;;7.13;81.57;102431.25;5038203;28;20538;-50